createdAt,value
2023-03-03T00:05:53.757Z,0.82
2023-03-03T00:16:16.994Z,0.76
2023-03-03T00:26:39.384Z,0.71
2023-03-03T00:37:00.615Z,0.67
2023-03-03T00:47:31.183Z,0.62
2023-03-03T00:57:53.248Z,0.58
2023-03-03T01:08:19.880Z,0.52
2023-03-03T01:18:42.280Z,0.45
2023-03-03T01:29:03.852Z,0.42
2023-03-03T01:39:24.782Z,0.38
2023-03-03T01:49:51.354Z,0.35
2023-03-03T02:00:12.946Z,0.33
2023-03-03T02:10:35.560Z,0.29
2023-03-03T02:21:20.613Z,0.24
2023-03-03T02:31:43.352Z,0.21
2023-03-03T02:42:20.754Z,0.13
2023-03-03T02:52:46.511Z,0.09
2023-03-03T03:03:08.457Z,0.03
2023-03-03T03:13:33.030Z,-0.04
2023-03-03T03:23:55.068Z,-0.08
2023-03-03T03:34:17.151Z,-0.11
2023-03-03T03:44:38.850Z,-0.16
2023-03-03T03:55:00.373Z,-0.21
2023-03-03T04:05:22.710Z,-0.26
2023-03-03T04:15:45.087Z,-0.27
2023-03-03T04:26:08.399Z,-0.33
2023-03-03T04:36:30.468Z,-0.40
2023-03-03T04:46:52.228Z,-0.41
2023-03-03T04:57:14.194Z,-0.45
2023-03-03T05:07:36.329Z,-0.48
2023-03-03T05:17:57.791Z,-0.52
2023-03-03T05:28:19.283Z,-0.59
2023-03-03T05:38:40.224Z,-0.63
2023-03-03T05:49:01.441Z,-0.64
2023-03-03T05:59:22.597Z,-0.68
2023-03-03T06:09:43.602Z,-0.72
2023-03-03T06:20:05.306Z,-0.74
2023-03-03T06:30:27.214Z,-0.74
2023-03-03T06:40:48.689Z,-0.76
2023-03-03T06:51:38.707Z,-0.78
2023-03-03T07:02:00.201Z,-0.75
2023-03-03T07:12:25.017Z,-0.71
2023-03-03T07:22:46.600Z,-0.62
2023-03-03T07:33:19.680Z,-0.56
2023-03-03T07:43:47.880Z,-0.45
2023-03-03T07:54:35.598Z,-0.23
2023-03-03T08:04:57.185Z,-0.06
2023-03-03T08:15:28.204Z,0.11
2023-03-03T08:25:50.976Z,0.26
2023-03-03T08:36:13.052Z,0.41
2023-03-03T08:46:34.459Z,0.64
2023-03-03T08:56:55.579Z,0.84
2023-03-03T09:07:16.657Z,1.04
2023-03-03T09:17:38.130Z,1.24
2023-03-03T09:28:00.046Z,1.45
2023-03-03T09:38:40.632Z,1.63
2023-03-03T09:49:14.688Z,1.76
2023-03-03T10:00:01.433Z,1.86
2023-03-03T10:10:50.403Z,2.00
2023-03-03T10:21:30.261Z,2.16
2023-03-03T10:32:13.315Z,2.35
2023-03-03T10:43:02.593Z,2.53
2023-03-03T10:53:32.990Z,2.71
2023-03-03T11:04:12.804Z,2.92
2023-03-03T11:14:37.851Z,3.10
2023-03-03T11:25:10.505Z,3.24
2023-03-03T11:35:46.621Z,3.37
2023-03-03T11:46:19.247Z,3.51
2023-03-03T11:56:43.140Z,3.63
2023-03-03T12:07:35.298Z,3.74
2023-03-03T12:18:05.567Z,3.86
2023-03-03T12:28:38.659Z,3.96
2023-03-03T12:39:33.745Z,4.03
2023-03-03T12:50:10.339Z,4.12
2023-03-03T13:00:48.007Z,4.19
2023-03-03T13:11:42.624Z,4.24
2023-03-03T13:22:14.323Z,4.29
2023-03-03T13:32:44.354Z,4.34
2023-03-03T13:43:14.035Z,4.37
2023-03-03T13:53:53.119Z,4.39
2023-03-03T14:04:23.826Z,4.40
2023-03-03T14:14:52.067Z,4.42
2023-03-03T14:25:15.081Z,4.41
2023-03-03T14:35:56.629Z,4.38
2023-03-03T14:46:27.212Z,4.36
2023-03-03T14:56:58.813Z,4.32
2023-03-03T15:07:36.696Z,4.28
2023-03-03T15:18:13.576Z,4.24
2023-03-03T15:28:54.762Z,4.19
2023-03-03T15:39:43.578Z,4.14
2023-03-03T15:50:16.527Z,4.06
2023-03-03T16:00:55.997Z,4.00
2023-03-03T16:11:29.143Z,3.92
2023-03-03T16:22:06.559Z,3.84
2023-03-03T16:32:36.734Z,3.78
2023-03-03T16:43:17.449Z,3.75
2023-03-03T16:53:41.208Z,3.75
2023-03-03T17:04:08.951Z,3.68
2023-03-03T17:15:05.384Z,3.53
2023-03-03T17:25:37.823Z,3.44
2023-03-03T17:36:05.215Z,3.36
2023-03-03T17:46:48.541Z,3.26
2023-03-03T17:57:28.345Z,3.17
2023-03-03T18:07:58.543Z,3.09
2023-03-03T18:18:42.656Z,3.03
2023-03-03T18:29:23.210Z,2.97
2023-03-03T18:39:51.294Z,2.91
2023-03-03T18:50:17.320Z,2.86
2023-03-03T19:00:48.856Z,2.81
2023-03-03T19:11:40.584Z,2.73
2023-03-03T19:22:27.446Z,2.69
2023-03-03T19:33:07.336Z,2.64
2023-03-03T19:43:53.288Z,2.54
2023-03-03T19:54:48.517Z,2.47
2023-03-03T20:05:15.725Z,2.45
2023-03-03T20:15:56.812Z,2.42
2023-03-03T20:26:35.200Z,2.35
2023-03-03T20:37:06.736Z,2.26
2023-03-03T20:47:34.100Z,2.21
2023-03-03T20:58:08.715Z,2.15
2023-03-03T21:08:46.943Z,2.07
2023-03-03T21:19:11.720Z,1.92
2023-03-03T21:29:35.095Z,1.82
2023-03-03T21:40:16.493Z,1.71
2023-03-03T21:50:41.373Z,1.59
2023-03-03T22:01:02.815Z,1.53
2023-03-03T22:11:24.278Z,1.44
2023-03-03T22:21:46.833Z,1.37
2023-03-03T22:32:07.901Z,1.30
2023-03-03T22:42:29.969Z,1.24
2023-03-03T22:52:51.057Z,1.18
2023-03-03T23:03:12.690Z,1.09
2023-03-03T23:13:35.385Z,1.07
2023-03-03T23:23:56.843Z,0.99
2023-03-03T23:34:18.038Z,0.94
2023-03-03T23:44:39.851Z,0.87
2023-03-03T23:55:00.832Z,0.82
